Список аэропортов
Фактическая погода:

25 июня, 00:00
Температура: +21°C (+21.0*)
Ветер: сев.-западный 4 м/с
Давление: *760 мм
неб. облачность
Время (МСК)Темп. СВетерВлажностьДавлениеОблачностьОсадки
21:00+22З, 2 м/с83%1014 гПаясно
22:00+22З, 3 м/с83%1015 гПаясно
23:00+21З, 3 м/с83%1015 гПаясно
25 июня
00:00+20З, 3 м/с83%1014 гПаясно
01:00+20СЗ, 3 м/с82%1014 гПамалооблачно
02:00+19СЗ, 2 м/с83%1014 гПамалооблачно
03:00+19СЗ, 2 м/с84%1015 гПас прояснениями
04:00+19СЗ, 1 м/с85%1015 гПас прояснениями
05:00+19З, 2 м/с86%1015 гПас прояснениями
06:00+19СЗ, 2 м/с86%1015 гПаоблачно
07:00+20С, 2 м/с82%1015 гПас прояснениями
08:00+22С, 3 м/с75%1015 гПамалооблачно
09:00+24СВ, 3 м/с71%1014 гПас прояснениями
10:00+25С, 3 м/с66%1014 гПас прояснениями
11:00+27С, 4 м/с61%1014 гПаоблачно
12:00+28С, 4 м/с57%1013 гПаоблачно
13:00+29С, 4 м/с51%1013 гПамалооблачно
14:00+30С, 4 м/с45%1013 гПамалооблачно
15:00+31С, 4 м/с41%1012 гПаоблачно
16:00+32С, 4 м/с39%1012 гПас прояснениями
17:00+32С, 5 м/с40%1012 гПамалооблачно
18:00+32С, 5 м/с41%1011 гПаясно
19:00+31С, 6 м/с42%1011 гПаясно
20:00+30С, 5 м/с43%1011 гПаясно
21:00+29С, 4 м/с46%1011 гПаясно
22:00+28С, 5 м/с47%1011 гПаясно
23:00+28С, 6 м/с47%1011 гПамалооблачно
26 июня
00:00+27С, 6 м/с48%1010 гПамалооблачно
01:00+26СЗ, 5 м/с49%1010 гПамалооблачно
02:00+26С, 6 м/с50%1010 гПамалооблачно
03:00+25С, 4 м/с52%1010 гПаясно
04:00+24С, 4 м/с54%1010 гПаясно
05:00+23С, 3 м/с58%1010 гПаясно
06:00+23С, 3 м/с58%1010 гПаясно
07:00+25С, 3 м/с55%1009 гПамалооблачно
08:00+26СВ, 2 м/с51%1009 гПас прояснениями
09:00+27СВ, 2 м/с54%1009 гПас прояснениямидождь
10:00+28СВ, 2 м/с48%1009 гПамалооблачно
11:00+30С, 1 м/с44%1009 гПамалооблачно
12:00+32С, 1 м/с40%1008 гПаясно
13:00+35С, 2 м/с34%1008 гПаясно
14:00+36СВ, 4 м/с26%1007 гПаясно
15:00+37СВ, 4 м/с24%1006 гПамалооблачно
16:00+37СВ, 4 м/с24%1006 гПаясно
17:00+37СВ, 4 м/с25%1005 гПаясно
18:00+37СВ, 4 м/с25%1005 гПас прояснениями
19:00+37СВ, 4 м/с26%1005 гПас прояснениями
20:00+36СВ, 4 м/с26%1005 гПас прояснениями
21:00+34С, 3 м/с28%1005 гПамалооблачно